Time;durP1;ratioP1;P1;durP2;ratioP2;P2;SDS_P1;SDS_P2;PMS_P1;PMS_P2;Temp;Humidity;BMP_temperature;BMP_pressure;BME280_temperature;BME280_humidity;BME280_pressure;Samples;Min_cycle;Max_cycle;Signal;HPM_P1;HPM_P2
2022/12/15 00:41:09;;;;;;;0.70;0.52;;;;;;;;;;5019165;28;20037;-80
2022/12/15 00:43:38;;;;;;;0.85;0.85;;;;;;;;;;5022942;28;20049;-80
2022/12/15 00:48:53;;;;;;;0.65;0.60;;;;;;;;;;5026703;28;20072;-80
2022/12/15 00:51:20;;;;;;;0.28;0.28;;;;;;;;;;5027711;28;20045;-81
2022/12/15 01:21:43;;;;;;;4.47;1.33;;;;;;;;;;5029156;28;20053;-80
2022/12/15 01:24:11;;;;;;;0.98;0.98;;;;;;;;;;5029129;28;20498;-80
2022/12/15 01:26:41;;;;;;;0.47;0.47;;;;;;;;;;5032772;28;20045;-80
2022/12/15 01:29:09;;;;;;;0.63;0.60;;;;;;;;;;5027643;28;20049;-80
2022/12/15 01:31:38;;;;;;;0.98;0.88;;;;;;;;;;5032611;28;20045;-81
2022/12/15 01:34:06;;;;;;;2.17;0.50;;;;;;;;;;5046204;28;20048;-81
2022/12/15 01:36:34;;;;;;;0.30;0.30;;;;;;;;;;5046254;28;20057;-80
2022/12/15 01:39:02;;;;;;;3.17;1.02;;;;;;;;;;5044468;28;20053;-81
2022/12/15 01:41:30;;;;;;;0.55;0.55;;;;;;;;;;5044748;28;20057;-80
2022/12/15 01:44:13;;;;;;;0.30;0.30;;;;;;;;;;5044798;28;20052;-81
2022/12/15 01:46:43;;;;;;;0.60;0.60;;;;;;;;;;5040971;28;20057;-81
2022/12/15 01:49:15;;;;;;;1.50;0.90;;;;;;;;;;5044912;28;20054;-81
2022/12/15 01:51:44;;;;;;;0.45;0.45;;;;;;;;;;5045447;28;20092;-80
2022/12/15 01:54:14;;;;;;;0.77;0.77;;;;;;;;;;5041278;28;20533;-80
2022/12/15 01:56:44;;;;;;;1.52;1.23;;;;;;;;;;5038063;28;20048;-80
2022/12/15 01:59:14;;;;;;;0.52;0.52;;;;;;;;;;5040862;28;20620;-80
2022/12/15 02:01:44;;;;;;;0.70;0.70;;;;;;;;;;5042634;28;20509;-81
2022/12/15 02:04:18;;;;;;;1.15;0.82;;;;;;;;;;5041623;28;20056;-80
2022/12/15 02:06:46;;;;;;;0.85;0.60;;;;;;;;;;5041850;28;20051;-80
2022/12/15 02:09:15;;;;;;;0.50;0.50;;;;;;;;;;5044411;28;20501;-81
2022/12/15 02:11:48;;;;;;;0.82;0.82;;;;;;;;;;5045775;28;20041;-80
2022/12/15 02:14:19;;;;;;;1.40;0.70;;;;;;;;;;5042823;28;20061;-81
2022/12/15 02:16:58;;;;;;;0.30;0.30;;;;;;;;;;5048905;28;20057;-80
2022/12/15 02:19:39;;;;;;;1.00;1.00;;;;;;;;;;5047636;28;20046;-80
2022/12/15 02:22:15;;;;;;;1.50;0.57;;;;;;;;;;5050543;28;20056;-81
2022/12/15 02:24:57;;;;;;;0.30;0.30;;;;;;;;;;5044533;28;20056;-81
2022/12/15 02:27:34;;;;;;;0.75;0.45;;;;;;;;;;5044246;28;20312;-80
2022/12/15 02:30:13;;;;;;;0.65;0.65;;;;;;;;;;5045877;28;20061;-81
2022/12/15 02:32:43;;;;;;;0.40;0.40;;;;;;;;;;5053819;28;21447;-80
2022/12/15 02:35:15;;;;;;;0.40;0.40;;;;;;;;;;5047420;28;20049;-80
2022/12/15 02:37:45;;;;;;;0.20;0.20;;;;;;;;;;5052181;28;20045;-81
2022/12/15 02:40:17;;;;;;;0.43;0.43;;;;;;;;;;5035155;28;20509;-80
2022/12/15 02:42:48;;;;;;;0.30;0.30;;;;;;;;;;5040442;28;20514;-81
2022/12/15 02:45:21;;;;;;;0.77;0.60;;;;;;;;;;5011967;23;20456;-71
2022/12/15 02:47:53;;;;;;;1.33;1.23;;;;;;;;;;5028246;22;20395;-80
2022/12/15 02:50:27;;;;;;;0.88;0.70;;;;;;;;;;5080562;28;20379;-80
2022/12/15 02:53:01;;;;;;;0.85;0.32;;;;;;;;;;5077336;28;20057;-80
2022/12/15 02:55:35;;;;;;;0.43;0.43;;;;;;;;;;5087771;28;20052;-80
2022/12/15 02:58:07;;;;;;;0.90;0.47;;;;;;;;;;5085034;28;20407;-80
2022/12/15 03:00:39;;;;;;;0.75;0.75;;;;;;;;;;5080446;28;20047;-81
2022/12/15 03:03:08;;;;;;;2.03;0.73;;;;;;;;;;5085862;28;20044;-81
2022/12/15 03:05:36;;;;;;;0.20;0.20;;;;;;;;;;5085165;28;20044;-81
2022/12/15 03:08:05;;;;;;;0.65;0.65;;;;;;;;;;5080548;28;20480;-81
2022/12/15 03:10:33;;;;;;;3.38;0.80;;;;;;;;;;5076331;28;20524;-80
2022/12/15 03:13:01;;;;;;;0.50;0.50;;;;;;;;;;5088710;28;20132;-80
2022/12/15 03:15:30;;;;;;;0.75;0.63;;;;;;;;;;5088134;28;20411;-80
2022/12/15 03:18:04;;;;;;;0.43;0.43;;;;;;;;;;5086856;28;20384;-80
2022/12/15 03:20:33;;;;;;;0.68;0.50;;;;;;;;;;5085199;28;20048;-80
2022/12/15 03:23:01;;;;;;;2.85;0.85;;;;;;;;;;5083247;28;20051;-80
2022/12/15 03:25:30;;;;;;;3.95;0.75;;;;;;;;;;5081103;28;20503;-80
2022/12/15 03:27:58;;;;;;;0.30;0.30;;;;;;;;;;5082089;28;20052;-81
2022/12/15 03:30:26;;;;;;;0.40;0.40;;;;;;;;;;5080013;28;20052;-80
2022/12/15 03:32:55;;;;;;;4.03;0.60;;;;;;;;;;5087451;28;20097;-80
2022/12/15 03:35:24;;;;;;;0.43;0.43;;;;;;;;;;5084921;28;20040;-80
2022/12/15 03:37:53;;;;;;;1.08;1.08;;;;;;;;;;5087685;28;20051;-80
2022/12/15 03:40:21;;;;;;;0.30;0.30;;;;;;;;;;5087698;28;20064;-81
2022/12/15 03:42:49;;;;;;;1.17;0.57;;;;;;;;;;5086596;28;20040;-80
2022/12/15 03:45:19;;;;;;;1.55;1.30;;;;;;;;;;5088061;28;20052;-80
2022/12/15 03:47:48;;;;;;;1.85;1.05;;;;;;;;;;5073768;28;20060;-80
2022/12/15 03:50:17;;;;;;;0.70;0.70;;;;;;;;;;5059867;28;20053;-80
2022/12/15 03:52:50;;;;;;;1.05;0.55;;;;;;;;;;5066749;28;20046;-80
2022/12/15 03:55:18;;;;;;;0.50;0.50;;;;;;;;;;5058679;28;20053;-80
2022/12/15 03:57:47;;;;;;;2.08;1.20;;;;;;;;;;5067018;28;20071;-80
2022/12/15 04:00:17;;;;;;;2.13;0.90;;;;;;;;;;5062794;28;20055;-80
2022/12/15 04:02:45;;;;;;;0.77;0.75;;;;;;;;;;5070221;28;20059;-80
2022/12/15 04:05:20;;;;;;;4.93;1.45;;;;;;;;;;5065820;28;20058;-80
2022/12/15 04:07:49;;;;;;;0.50;0.50;;;;;;;;;;5059904;28;20040;-81
2022/12/15 04:10:18;;;;;;;0.57;0.52;;;;;;;;;;5065884;28;20052;-81
2022/12/15 04:12:46;;;;;;;3.55;1.15;;;;;;;;;;5060878;28;20063;-80
2022/12/15 04:15:15;;;;;;;0.40;0.40;;;;;;;;;;5058417;28;20056;-81
2022/12/15 04:17:43;;;;;;;1.27;1.05;;;;;;;;;;5060909;28;20048;-80
2022/12/15 04:20:12;;;;;;;4.63;1.55;;;;;;;;;;5057588;28;20044;-81
2022/12/15 04:22:41;;;;;;;0.60;0.60;;;;;;;;;;5061296;28;20041;-81
2022/12/15 05:31:50;;;;;;;0.65;0.65;;;;;;;;;;5061055;28;20052;-81
2022/12/15 05:34:20;;;;;;;0.60;0.60;;;;;;;;;;5060048;28;20052;-81
2022/12/15 05:36:48;;;;;;;0.15;0.15;;;;;;;;;;5059429;28;20052;-80
2022/12/15 05:39:16;;;;;;;1.33;0.80;;;;;;;;;;5061494;28;20540;-81
2022/12/15 05:41:46;;;;;;;0.32;0.32;;;;;;;;;;5060854;28;20721;-82
2022/12/15 05:44:14;;;;;;;0.88;0.80;;;;;;;;;;5071116;28;20055;-79
2022/12/15 05:46:43;;;;;;;0.55;0.55;;;;;;;;;;5060035;28;20055;-81
2022/12/15 05:49:14;;;;;;;0.55;0.50;;;;;;;;;;5066334;28;20067;-79
2022/12/15 05:51:43;;;;;;;1.55;1.30;;;;;;;;;;5063429;28;20139;-80
2022/12/15 05:54:14;;;;;;;0.73;0.73;;;;;;;;;;5064853;28;20048;-84
2022/12/15 05:56:42;;;;;;;0.47;0.47;;;;;;;;;;5056922;28;20488;-80
2022/12/15 05:59:10;;;;;;;0.38;0.38;;;;;;;;;;5061488;28;20044;-79
2022/12/15 06:01:39;;;;;;;0.43;0.40;;;;;;;;;;5058238;28;20082;-78
2022/12/15 06:04:07;;;;;;;0.65;0.65;;;;;;;;;;5065231;28;20060;-79
2022/12/15 06:06:37;;;;;;;1.65;1.13;;;;;;;;;;5068890;28;20338;-77
2022/12/15 06:09:05;;;;;;;0.30;0.30;;;;;;;;;;5068605;28;20052;-79
2022/12/15 06:11:34;;;;;;;0.98;0.98;;;;;;;;;;5064114;28;20051;-78
2022/12/15 06:14:02;;;;;;;2.00;0.65;;;;;;;;;;5065759;28;20052;-81
2022/12/15 06:16:30;;;;;;;1.23;0.90;;;;;;;;;;5060536;28;20054;-81
2022/12/15 06:19:00;;;;;;;1.38;0.85;;;;;;;;;;5057802;28;20416;-81
2022/12/15 06:21:34;;;;;;;4.97;0.68;;;;;;;;;;5065914;28;20080;-80
2022/12/15 06:24:04;;;;;;;0.93;0.83;;;;;;;;;;5067447;28;20056;-81
2022/12/15 06:26:34;;;;;;;2.42;0.55;;;;;;;;;;5059575;28;20291;-81
2022/12/15 06:29:04;;;;;;;0.38;0.30;;;;;;;;;;5058696;28;20048;-82
2022/12/15 06:31:32;;;;;;;0.80;0.80;;;;;;;;;;5057245;28;20403;-81
2022/12/15 06:34:04;;;;;;;0.93;0.80;;;;;;;;;;5062797;28;20052;-81
2022/12/15 06:36:32;;;;;;;0.25;0.25;;;;;;;;;;5072724;28;20567;-80
2022/12/15 06:39:01;;;;;;;6.70;1.15;;;;;;;;;;5064528;28;20052;-81
2022/12/15 06:41:31;;;;;;;0.30;0.30;;;;;;;;;;5071400;28;20059;-90
2022/12/15 06:43:59;;;;;;;2.42;0.88;;;;;;;;;;5063187;28;20407;-82
2022/12/15 06:46:29;;;;;;;3.40;0.80;;;;;;;;;;5070377;28;20052;-82
2022/12/15 06:48:58;;;;;;;0.82;0.82;;;;;;;;;;5064599;28;20477;-82
2022/12/15 06:51:26;;;;;;;1.27;1.17;;;;;;;;;;5065733;28;20045;-82
2022/12/15 06:53:55;;;;;;;1.25;1.25;;;;;;;;;;5060446;28;20111;-82
2022/12/15 06:56:26;;;;;;;0.50;0.50;;;;;;;;;;5059092;28;20049;-82
2022/12/15 06:59:03;;;;;;;0.40;0.40;;;;;;;;;;5064618;28;20049;-82
2022/12/15 07:01:32;;;;;;;0.30;0.30;;;;;;;;;;5070318;28;20063;-82
2022/12/15 07:04:03;;;;;;;0.52;0.40;;;;;;;;;;5070581;28;20451;-82
2022/12/15 07:06:35;;;;;;;0.20;0.20;;;;;;;;;;5062827;28;20074;-83
2022/12/15 07:09:06;;;;;;;0.68;0.63;;;;;;;;;;5070094;28;20094;-82
2022/12/15 07:11:34;;;;;;;0.30;0.30;;;;;;;;;;5064614;28;20045;-83
2022/12/15 07:14:04;;;;;;;2.60;0.50;;;;;;;;;;5064774;28;20472;-82
2022/12/15 07:16:32;;;;;;;0.65;0.65;;;;;;;;;;5071108;28;20106;-83
2022/12/15 07:19:01;;;;;;;0.80;0.50;;;;;;;;;;5065051;28;20055;-82
2022/12/15 07:21:29;;;;;;;1.02;1.02;;;;;;;;;;5069886;28;20057;-83
2022/12/15 07:23:58;;;;;;;0.30;0.30;;;;;;;;;;5058900;28;20132;-84
2022/12/15 07:26:29;;;;;;;0.75;0.38;;;;;;;;;;5064972;28;20170;-82
2022/12/15 07:28:57;;;;;;;0.45;0.45;;;;;;;;;;5063527;28;20578;-82
2022/12/15 07:31:27;;;;;;;1.15;1.15;;;;;;;;;;5065598;28;20045;-82
2022/12/15 07:33:57;;;;;;;1.90;0.82;;;;;;;;;;5064346;28;20051;-82
2022/12/15 07:36:26;;;;;;;0.70;0.70;;;;;;;;;;5063526;28;20056;-82
2022/12/15 07:38:59;;;;;;;1.30;1.20;;;;;;;;;;5070197;28;20044;-82
2022/12/15 07:41:28;;;;;;;0.30;0.30;;;;;;;;;;5067678;28;20049;-82
2022/12/15 07:43:57;;;;;;;1.38;1.27;;;;;;;;;;5065302;28;20049;-82
2022/12/15 07:46:27;;;;;;;0.73;0.73;;;;;;;;;;5061872;28;20158;-82
2022/12/15 07:48:56;;;;;;;1.40;0.60;;;;;;;;;;5062584;28;20072;-82
2022/12/15 07:51:25;;;;;;;0.50;0.50;;;;;;;;;;5063469;28;20059;-82
2022/12/15 07:53:53;;;;;;;1.02;0.90;;;;;;;;;;5066321;28;20051;-82
2022/12/15 07:56:21;;;;;;;5.90;1.02;;;;;;;;;;5069680;28;20056;-82
2022/12/15 07:58:50;;;;;;;1.00;0.47;;;;;;;;;;5068239;28;20048;-82
2022/12/15 08:01:18;;;;;;;1.08;1.08;;;;;;;;;;5067402;28;20417;-82
2022/12/15 08:03:48;;;;;;;0.70;0.63;;;;;;;;;;5069892;28;20514;-82
2022/12/15 08:06:17;;;;;;;0.70;0.70;;;;;;;;;;5060690;28;20048;-82
2022/12/15 08:08:46;;;;;;;6.65;1.65;;;;;;;;;;5063958;28;20040;-82
2022/12/15 08:11:19;;;;;;;0.70;0.70;;;;;;;;;;5070086;28;20175;-82
2022/12/15 08:13:47;;;;;;;1.48;1.00;;;;;;;;;;5060334;28;20040;-82
2022/12/15 08:16:36;;;;;;;3.88;1.33;;;;;;;;;;5062049;28;20049;-82
2022/12/15 08:19:07;;;;;;;0.90;0.90;;;;;;;;;;5065750;28;20102;-81
2022/12/15 08:21:36;;;;;;;0.60;0.52;;;;;;;;;;5060206;28;20102;-82
2022/12/15 08:24:04;;;;;;;0.80;0.80;;;;;;;;;;5064774;28;20056;-82
2022/12/15 08:26:33;;;;;;;0.30;0.30;;;;;;;;;;5063239;28;20168;-83
2022/12/15 08:29:03;;;;;;;8.18;2.47;;;;;;;;;;5058728;28;20115;-83
2022/12/15 08:31:52;;;;;;;2.33;2.13;;;;;;;;;;5061563;28;20052;-83
2022/12/15 08:34:22;;;;;;;2.75;1.63;;;;;;;;;;5064498;28;20044;-83
2022/12/15 08:36:51;;;;;;;0.50;0.50;;;;;;;;;;5064728;28;20076;-83
2022/12/15 08:39:20;;;;;;;1.90;1.13;;;;;;;;;;5063972;28;20044;-82
2022/12/15 08:41:48;;;;;;;1.63;0.88;;;;;;;;;;5067282;28;20048;-82
2022/12/15 08:44:17;;;;;;;1.20;1.20;;;;;;;;;;5064177;28;20048;-83
2022/12/15 08:46:45;;;;;;;0.82;0.82;;;;;;;;;;5058621;28;20056;-83
2022/12/15 08:49:14;;;;;;;0.65;0.60;;;;;;;;;;5062291;28;20155;-84
2022/12/15 08:51:51;;;;;;;5.68;1.65;;;;;;;;;;5065982;28;20041;-84
2022/12/15 08:54:20;;;;;;;1.35;1.25;;;;;;;;;;5065390;28;20055;-83
2022/12/15 08:56:49;;;;;;;0.20;0.20;;;;;;;;;;5067778;28;20040;-82
2022/12/15 08:59:17;;;;;;;6.93;1.38;;;;;;;;;;5062807;28;20125;-84
2022/12/15 09:01:47;;;;;;;0.70;0.63;;;;;;;;;;5061704;28;20059;-84
2022/12/15 09:04:16;;;;;;;0.50;0.50;;;;;;;;;;5067439;28;20055;-84
2022/12/15 09:06:45;;;;;;;4.68;1.33;;;;;;;;;;5065442;28;20402;-84
2022/12/15 09:09:19;;;;;;;0.43;0.43;;;;;;;;;;5062496;28;20488;-84
2022/12/15 09:11:48;;;;;;;1.13;1.08;;;;;;;;;;5065781;28;20523;-84
2022/12/15 09:14:17;;;;;;;1.85;1.48;;;;;;;;;;5058599;28;20049;-86
2022/12/15 09:16:53;;;;;;;1.58;0.47;;;;;;;;;;5067286;28;20044;-84
2022/12/15 09:19:22;;;;;;;5.22;0.77;;;;;;;;;;5065851;28;20060;-87
2022/12/15 09:21:50;;;;;;;0.40;0.40;;;;;;;;;;5070430;28;20436;-84
2022/12/15 09:24:20;;;;;;;0.47;0.47;;;;;;;;;;5071077;28;20543;-85
2022/12/15 09:27:01;;;;;;;3.42;1.42;;;;;;;;;;5071962;28;20068;-84
2022/12/15 09:29:30;;;;;;;1.15;1.15;;;;;;;;;;5069390;28;20123;-84
2022/12/15 09:31:59;;;;;;;0.30;0.30;;;;;;;;;;5070887;28;20091;-84
2022/12/15 09:34:27;;;;;;;0.80;0.80;;;;;;;;;;5070804;28;20044;-85
2022/12/15 09:36:56;;;;;;;0.65;0.65;;;;;;;;;;5061736;28;20041;-83
2022/12/15 09:39:27;;;;;;;1.95;1.77;;;;;;;;;;5074898;28;20094;-84
2022/12/15 09:41:59;;;;;;;1.38;1.08;;;;;;;;;;5074435;28;20065;-84
2022/12/15 09:44:29;;;;;;;0.40;0.40;;;;;;;;;;5083971;28;20427;-86
2022/12/15 09:47:04;;;;;;;0.98;0.98;;;;;;;;;;5085383;28;20044;-88
2022/12/15 09:49:41;;;;;;;0.82;0.82;;;;;;;;;;5081299;28;20053;-88
2022/12/15 09:52:12;;;;;;;1.30;1.15;;;;;;;;;;5076594;28;20095;-87
2022/12/15 09:54:43;;;;;;;0.98;0.90;;;;;;;;;;5085127;28;20120;-90
2022/12/15 09:57:16;;;;;;;0.20;0.20;;;;;;;;;;5078974;28;20048;-88
2022/12/15 09:59:51;;;;;;;1.45;1.35;;;;;;;;;;5075786;28;20147;-83
2022/12/15 10:02:29;;;;;;;0.40;0.40;;;;;;;;;;5080184;28;20052;-83
2022/12/15 10:05:00;;;;;;;1.08;0.85;;;;;;;;;;5067454;28;20077;-85
2022/12/15 10:07:31;;;;;;;5.28;1.10;;;;;;;;;;5070016;28;20056;-84
2022/12/15 10:10:04;;;;;;;1.95;1.77;;;;;;;;;;5066211;28;20121;-85
2022/12/15 10:12:36;;;;;;;0.60;0.60;;;;;;;;;;5065015;28;20074;-87
2022/12/15 10:15:09;;;;;;;0.40;0.40;;;;;;;;;;5053224;28;20318;-85
2022/12/15 10:17:42;;;;;;;2.17;0.63;;;;;;;;;;5067365;28;20056;-87
2022/12/15 10:20:17;;;;;;;0.75;0.52;;;;;;;;;;5065849;28;20046;-85
2022/12/15 10:22:46;;;;;;;0.95;0.95;;;;;;;;;;5065882;28;20492;-84
2022/12/15 10:25:21;;;;;;;2.20;2.05;;;;;;;;;;5071335;28;20404;-84
2022/12/15 10:28:08;;;;;;;0.28;0.28;;;;;;;;;;5060589;28;20072;-84
2022/12/15 10:30:38;;;;;;;0.88;0.75;;;;;;;;;;5071357;28;20088;-85
2022/12/15 10:33:12;;;;;;;2.53;1.75;;;;;;;;;;5072106;28;20040;-84
2022/12/15 10:35:42;;;;;;;0.98;0.95;;;;;;;;;;5072849;28;20052;-86
2022/12/15 10:38:20;;;;;;;1.00;0.50;;;;;;;;;;5048496;28;20045;-85
2022/12/15 10:40:51;;;;;;;0.30;0.30;;;;;;;;;;5042908;28;20041;-86
2022/12/15 10:43:28;;;;;;;0.50;0.50;;;;;;;;;;5063769;28;20515;-87
2022/12/15 10:46:01;;;;;;;0.20;0.20;;;;;;;;;;5069403;28;20044;-84
2022/12/15 10:48:30;;;;;;;0.47;0.47;;;;;;;;;;5067538;28;20561;-83
2022/12/15 10:51:13;;;;;;;0.40;0.40;;;;;;;;;;5071610;28;20110;-83
2022/12/15 10:53:43;;;;;;;0.80;0.70;;;;;;;;;;5067106;28;20045;-84
2022/12/15 10:56:34;;;;;;;1.48;1.38;;;;;;;;;;5070569;28;20135;-84
2022/12/15 10:59:03;;;;;;;1.50;1.40;;;;;;;;;;5064077;28;20053;-83
2022/12/15 11:01:33;;;;;;;0.22;0.22;;;;;;;;;;5068532;28;20040;-87
2022/12/15 11:04:02;;;;;;;0.50;0.50;;;;;;;;;;5058574;28;20210;-86
2022/12/15 11:06:32;;;;;;;1.45;1.45;;;;;;;;;;5063961;28;20064;-84
2022/12/15 11:09:08;;;;;;;1.00;0.52;;;;;;;;;;5066466;28;20048;-86
2022/12/15 11:14:42;;;;;;;6.78;1.50;;;;;;;;;;5060826;28;20048;-86
2022/12/15 11:17:14;;;;;;;1.30;0.50;;;;;;;;;;5068482;28;20063;-86
2022/12/15 11:19:48;;;;;;;2.65;0.30;;;;;;;;;;5073906;28;20045;-84
2022/12/15 11:22:19;;;;;;;0.50;0.50;;;;;;;;;;5062043;28;20048;-83
2022/12/15 11:24:50;;;;;;;0.65;0.65;;;;;;;;;;5066566;28;20041;-83
2022/12/15 11:27:23;;;;;;;2.72;1.73;;;;;;;;;;5064803;28;20044;-86
2022/12/15 11:29:58;;;;;;;0.75;0.75;;;;;;;;;;5063234;28;20444;-85
2022/12/15 11:32:29;;;;;;;1.13;1.02;;;;;;;;;;5064168;28;20121;-84
2022/12/15 11:34:57;;;;;;;1.00;0.57;;;;;;;;;;5065309;28;20045;-84
2022/12/15 11:37:43;;;;;;;2.13;2.03;;;;;;;;;;5062010;28;20144;-84
2022/12/15 11:40:20;;;;;;;4.80;1.70;;;;;;;;;;5052904;28;20064;-83
2022/12/15 11:42:56;;;;;;;0.88;0.70;;;;;;;;;;5058474;28;20049;-83
2022/12/15 11:45:26;;;;;;;4.57;0.95;;;;;;;;;;5055377;28;20063;-83
2022/12/15 11:48:00;;;;;;;0.32;0.32;;;;;;;;;;5063576;28;20067;-83
2022/12/15 11:50:31;;;;;;;1.57;1.27;;;;;;;;;;5067313;28;20060;-83
2022/12/15 11:53:19;;;;;;;1.98;1.88;;;;;;;;;;5063298;28;20044;-83
2022/12/15 11:55:49;;;;;;;5.90;1.33;;;;;;;;;;5064891;28;20088;-83
2022/12/15 11:58:29;;;;;;;2.10;1.38;;;;;;;;;;5061699;28;20044;-84
2022/12/15 12:01:03;;;;;;;2.72;0.82;;;;;;;;;;5059527;28;20056;-82
2022/12/15 12:03:34;;;;;;;0.80;0.80;;;;;;;;;;5057585;28;20044;-83
2022/12/15 12:06:17;;;;;;;1.10;1.10;;;;;;;;;;5062702;28;20132;-83
2022/12/15 12:08:53;;;;;;;0.63;0.63;;;;;;;;;;5063305;28;20057;-83
2022/12/15 12:11:25;;;;;;;1.27;0.50;;;;;;;;;;5068787;28;20432;-86
2022/12/15 12:14:01;;;;;;;1.55;1.45;;;;;;;;;;5066488;28;20055;-84
2022/12/15 12:16:39;;;;;;;4.22;1.55;;;;;;;;;;5071167;28;20459;-85
2022/12/15 12:19:11;;;;;;;0.65;0.65;;;;;;;;;;5066650;28;20532;-87
2022/12/15 12:21:41;;;;;;;0.80;0.80;;;;;;;;;;5065146;28;20511;-83
2022/12/15 12:24:13;;;;;;;0.88;0.88;;;;;;;;;;5065451;28;20078;-84
2022/12/15 12:26:43;;;;;;;0.50;0.50;;;;;;;;;;5070321;28;20416;-85
2022/12/15 12:29:17;;;;;;;1.13;1.13;;;;;;;;;;5060927;28;20127;-85
2022/12/15 12:31:50;;;;;;;0.85;0.85;;;;;;;;;;5064827;28;20229;-85
2022/12/15 12:34:23;;;;;;;2.67;1.92;;;;;;;;;;5067158;28;20067;-86
2022/12/15 12:36:53;;;;;;;1.17;1.10;;;;;;;;;;5065281;28;20521;-87
2022/12/15 12:39:24;;;;;;;3.08;1.55;;;;;;;;;;5063012;28;20506;-85
2022/12/15 12:41:56;;;;;;;0.63;0.63;;;;;;;;;;5068762;28;20041;-87
2022/12/15 12:44:29;;;;;;;2.38;0.88;;;;;;;;;;5061609;28;20055;-87
2022/12/15 12:46:59;;;;;;;2.43;1.17;;;;;;;;;;5069405;28;20047;-84
2022/12/15 12:49:29;;;;;;;2.78;2.25;;;;;;;;;;5065063;28;20139;-89
2022/12/15 12:51:59;;;;;;;3.72;2.13;;;;;;;;;;5061267;28;20060;-87
2022/12/15 12:54:42;;;;;;;2.83;1.15;;;;;;;;;;5065188;28;20416;-84
2022/12/15 12:57:25;;;;;;;1.38;1.27;;;;;;;;;;5063916;28;20488;-86
2022/12/15 12:59:58;;;;;;;1.40;0.77;;;;;;;;;;5055635;28;20118;-86
2022/12/15 13:02:45;;;;;;;0.30;0.30;;;;;;;;;;5060183;28;20124;-83
2022/12/15 13:05:25;;;;;;;1.40;0.43;;;;;;;;;;5063576;28;20087;-84
2022/12/15 13:07:57;;;;;;;2.80;1.52;;;;;;;;;;5067149;28;20098;-84
2022/12/15 13:10:26;;;;;;;0.63;0.63;;;;;;;;;;5073992;28;20063;-83
2022/12/15 13:13:17;;;;;;;1.38;0.82;;;;;;;;;;5072258;28;20579;-84
2022/12/15 13:17:02;;;;;;;1.15;0.98;;;;;;;;;;5058405;28;20051;-85
2022/12/15 13:20:17;;;;;;;2.38;0.63;;;;;;;;;;5054799;28;20045;-87
2022/12/15 13:22:46;;;;;;;2.72;0.98;;;;;;;;;;5060149;28;20593;-88
2022/12/15 13:25:28;;;;;;;7.60;1.05;;;;;;;;;;5057323;28;20785;-88
2022/12/15 13:27:59;;;;;;;0.40;0.40;;;;;;;;;;5059535;28;20048;-86
2022/12/15 13:30:28;;;;;;;1.73;1.60;;;;;;;;;;5063012;28;20106;-88
2022/12/15 13:33:14;;;;;;;0.65;0.65;;;;;;;;;;5062825;28;20040;-88
2022/12/15 13:35:45;;;;;;;1.40;1.30;;;;;;;;;;5062200;28;20136;-86
2022/12/15 13:38:17;;;;;;;3.13;2.80;;;;;;;;;;5065897;28;20140;-87
2022/12/15 13:40:53;;;;;;;3.33;2.58;;;;;;;;;;5071137;28;20044;-86
2022/12/15 13:43:36;;;;;;;2.60;1.02;;;;;;;;;;5059504;28;20482;-84
2022/12/15 13:49:09;;;;;;;1.92;1.75;;;;;;;;;;5019719;28;20049;-73
2022/12/15 13:51:44;;;;;;;0.88;0.88;;;;;;;;;;5028675;28;20867;-73
2022/12/15 13:54:22;;;;;;;2.58;2.33;;;;;;;;;;5045704;28;20126;-73
2022/12/15 13:56:53;;;;;;;1.52;1.08;;;;;;;;;;5048095;28;20045;-73
2022/12/15 13:59:35;;;;;;;0.50;0.50;;;;;;;;;;5049324;28;20069;-72
2022/12/15 14:02:03;;;;;;;1.25;1.10;;;;;;;;;;5053491;28;20048;-72
2022/12/15 14:04:32;;;;;;;1.95;1.77;;;;;;;;;;5049127;28;20072;-73
2022/12/15 14:07:03;;;;;;;4.13;2.05;;;;;;;;;;5058656;28;20055;-73
2022/12/15 14:09:34;;;;;;;0.63;0.63;;;;;;;;;;5051513;28;20063;-73
2022/12/15 14:12:04;;;;;;;0.88;0.88;;;;;;;;;;5053156;28;20535;-73
2022/12/15 14:14:34;;;;;;;4.20;1.95;;;;;;;;;;5047581;28;20053;-73
2022/12/15 14:17:03;;;;;;;3.55;1.67;;;;;;;;;;5049842;28;20041;-73
2022/12/15 14:19:38;;;;;;;2.28;1.88;;;;;;;;;;5046476;28;20124;-73
2022/12/15 14:22:21;;;;;;;1.30;1.20;;;;;;;;;;5044188;28;20048;-73
2022/12/15 14:25:01;;;;;;;0.50;0.50;;;;;;;;;;5046223;28;20515;-73
2022/12/15 14:27:30;;;;;;;1.63;1.53;;;;;;;;;;5049261;28;20502;-73
2022/12/15 14:30:21;;;;;;;1.15;1.15;;;;;;;;;;5047221;28;20559;-74
2022/12/15 14:32:51;;;;;;;0.88;0.88;;;;;;;;;;5048221;28;20106;-73
2022/12/15 14:35:23;;;;;;;0.50;0.50;;;;;;;;;;5041819;28;20183;-73
2022/12/15 14:37:54;;;;;;;0.55;0.55;;;;;;;;;;5049030;28;20037;-73
2022/12/15 14:40:22;;;;;;;0.40;0.40;;;;;;;;;;5046429;28;20041;-74
2022/12/15 14:42:56;;;;;;;0.63;0.63;;;;;;;;;;5043554;28;20049;-73
2022/12/15 14:45:27;;;;;;;0.35;0.35;;;;;;;;;;5045924;28;20340;-73
2022/12/15 14:47:58;;;;;;;0.65;0.55;;;;;;;;;;5051293;28;20124;-74
2022/12/15 14:50:47;;;;;;;0.47;0.47;;;;;;;;;;5029145;28;20052;-74
2022/12/15 14:53:18;;;;;;;2.78;1.55;;;;;;;;;;5057839;28;20059;-73
2022/12/15 14:55:46;;;;;;;1.40;0.93;;;;;;;;;;5060240;28;20120;-73
2022/12/15 14:58:25;;;;;;;0.65;0.65;;;;;;;;;;5066197;28;20123;-73
2022/12/15 15:00:54;;;;;;;0.60;0.60;;;;;;;;;;5061147;28;20701;-73
2022/12/15 15:03:27;;;;;;;0.45;0.40;;;;;;;;;;5054519;28;20060;-74
2022/12/15 15:05:57;;;;;;;0.70;0.70;;;;;;;;;;5060706;28;20051;-74
2022/12/15 15:08:29;;;;;;;0.52;0.52;;;;;;;;;;5064507;28;20045;-73
2022/12/15 15:10:59;;;;;;;0.73;0.73;;;;;;;;;;5068713;28;20555;-74
2022/12/15 15:13:30;;;;;;;0.40;0.40;;;;;;;;;;5060789;28;20052;-74
2022/12/15 15:16:07;;;;;;;1.73;1.35;;;;;;;;;;5062040;28;20044;-74
2022/12/15 15:18:36;;;;;;;0.52;0.52;;;;;;;;;;5067402;28;20136;-74
2022/12/15 15:21:05;;;;;;;1.30;0.80;;;;;;;;;;5062732;28;20048;-74
2022/12/15 15:23:40;;;;;;;0.73;0.68;;;;;;;;;;5065529;28;20092;-74
2022/12/15 15:26:08;;;;;;;;;;;;;;;;;;5058237;28;20536;-74
2022/12/15 15:28:38;;;;;;;0.60;0.60;;;;;;;;;;5056895;28;20015;-74
2022/12/15 15:31:21;;;;;;;2.83;0.70;;;;;;;;;;5063838;28;20128;-74
2022/12/15 15:33:50;;;;;;;0.45;0.45;;;;;;;;;;5056787;28;20041;-74
2022/12/15 15:36:18;;;;;;;0.40;0.40;;;;;;;;;;5062918;28;20072;-74
2022/12/15 15:38:48;;;;;;;1.38;1.30;;;;;;;;;;5064346;28;20066;-74
2022/12/15 15:41:19;;;;;;;0.73;0.68;;;;;;;;;;5059713;28;20053;-74
2022/12/15 15:43:48;;;;;;;1.48;1.38;;;;;;;;;;5064236;28;20083;-74
2022/12/15 15:46:17;;;;;;;0.60;0.60;;;;;;;;;;5059611;28;20127;-74
2022/12/15 15:48:47;;;;;;;1.33;1.33;;;;;;;;;;5064875;28;20415;-74
2022/12/15 15:51:16;;;;;;;0.60;0.60;;;;;;;;;;5069359;28;20098;-74
2022/12/15 15:53:44;;;;;;;0.88;0.88;;;;;;;;;;5067270;28;20059;-74
2022/12/15 15:56:15;;;;;;;0.20;0.20;;;;;;;;;;5059049;28;20638;-74
2022/12/15 15:58:44;;;;;;;1.85;1.55;;;;;;;;;;5069274;28;20458;-74
2022/12/15 16:01:12;;;;;;;1.95;1.38;;;;;;;;;;5058587;28;20131;-74
2022/12/15 16:03:41;;;;;;;0.57;0.57;;;;;;;;;;5061876;28;20447;-74
2022/12/15 16:06:15;;;;;;;3.72;1.85;;;;;;;;;;5062594;28;20171;-74
2022/12/15 16:08:43;;;;;;;0.57;0.57;;;;;;;;;;5059579;28;20045;-74
2022/12/15 16:11:13;;;;;;;0.80;0.80;;;;;;;;;;5052967;28;20055;-74
2022/12/15 16:13:42;;;;;;;1.45;1.15;;;;;;;;;;5063965;28;20060;-74
2022/12/15 16:16:14;;;;;;;2.28;1.00;;;;;;;;;;5061701;28;20045;-74
2022/12/15 16:18:42;;;;;;;0.28;0.28;;;;;;;;;;5049660;28;20056;-74
2022/12/15 16:21:13;;;;;;;0.65;0.65;;;;;;;;;;5067671;28;20488;-74
2022/12/15 16:23:43;;;;;;;1.30;0.95;;;;;;;;;;5066159;28;20048;-75
2022/12/15 16:26:14;;;;;;;0.77;0.77;;;;;;;;;;5063876;28;20048;-74
2022/12/15 16:28:44;;;;;;;2.78;1.48;;;;;;;;;;5067240;28;20055;-75
2022/12/15 16:31:15;;;;;;;7.95;1.85;;;;;;;;;;5068203;28;20616;-74
2022/12/15 16:33:44;;;;;;;2.67;1.30;;;;;;;;;;5066041;28;20532;-74
2022/12/15 16:36:13;;;;;;;0.82;0.52;;;;;;;;;;5061657;28;20412;-74
2022/12/15 16:38:42;;;;;;;1.58;0.98;;;;;;;;;;5067466;28;20518;-75
2022/12/15 16:41:13;;;;;;;1.48;1.38;;;;;;;;;;5055456;28;20091;-74
2022/12/15 16:43:42;;;;;;;1.05;1.05;;;;;;;;;;5067618;28;20551;-74
2022/12/15 16:46:17;;;;;;;0.80;0.80;;;;;;;;;;5059097;28;20040;-74
2022/12/15 16:48:45;;;;;;;1.20;1.20;;;;;;;;;;5067879;28;20508;-74
2022/12/15 16:51:22;;;;;;;0.70;0.70;;;;;;;;;;5068728;28;20102;-74
2022/12/15 16:53:50;;;;;;;1.80;0.70;;;;;;;;;;5058787;28;20128;-74
2022/12/15 16:56:19;;;;;;;1.83;0.80;;;;;;;;;;5064793;28;20044;-74
2022/12/15 16:58:47;;;;;;;0.65;0.63;;;;;;;;;;5059262;28;20056;-73
2022/12/15 17:01:21;;;;;;;0.65;0.63;;;;;;;;;;5057068;28;20111;-73
2022/12/15 17:03:50;;;;;;;0.55;0.55;;;;;;;;;;5052647;28;20048;-72
2022/12/15 17:06:18;;;;;;;0.80;0.65;;;;;;;;;;5064893;28;20052;-72
2022/12/15 17:08:48;;;;;;;1.63;1.13;;;;;;;;;;5052808;28;20048;-72
2022/12/15 17:11:19;;;;;;;4.43;1.17;;;;;;;;;;5058350;28;20158;-72
2022/12/15 17:13:50;;;;;;;5.47;1.80;;;;;;;;;;5045035;28;20076;-72
2022/12/15 17:16:18;;;;;;;2.50;0.88;;;;;;;;;;5052412;28;20075;-72
2022/12/15 17:18:49;;;;;;;2.63;1.55;;;;;;;;;;5051534;28;20045;-72
2022/12/15 17:21:18;;;;;;;1.75;0.82;;;;;;;;;;5060702;28;20381;-72
2022/12/15 17:23:49;;;;;;;1.15;1.00;;;;;;;;;;5060427;28;20435;-72
2022/12/15 17:26:19;;;;;;;0.63;0.63;;;;;;;;;;5062483;28;20504;-72
2022/12/15 17:28:57;;;;;;;0.60;0.52;;;;;;;;;;5046331;28;20060;-72
2022/12/15 17:31:26;;;;;;;2.28;1.02;;;;;;;;;;5067297;28;20442;-72
2022/12/15 17:34:08;;;;;;;1.33;1.08;;;;;;;;;;5058311;28;20041;-72